createdAt,value
2019-03-01T00:01:57.024Z,73.02
2019-03-01T00:04:49.496Z,63.68
2019-03-01T00:10:28.932Z,65.28
2019-03-01T00:15:54.093Z,63.80
2019-03-01T00:18:58.921Z,63.92
2019-03-01T00:22:15.281Z,65.37
2019-03-01T00:25:08.002Z,55.03
2019-03-01T00:28:20.494Z,56.53
2019-03-01T00:31:13.538Z,61.65
2019-03-01T00:34:17.813Z,61.10
2019-03-01T00:37:22.330Z,59.33
2019-03-01T00:39:59.861Z,60.73
2019-03-01T00:43:11.453Z,65.22
2019-03-01T00:45:40.494Z,62.80
2019-03-01T00:48:09.441Z,69.65
2019-03-01T00:50:38.460Z,69.60
2019-03-01T00:53:07.247Z,65.57
2019-03-01T00:55:35.940Z,73.92
2019-03-01T00:58:04.699Z,67.47
2019-03-01T01:00:37.746Z,61.58
2019-03-01T01:03:06.481Z,58.90
2019-03-01T01:05:35.501Z,62.73
2019-03-01T01:08:04.807Z,63.48
2019-03-01T01:10:33.884Z,63.90
2019-03-01T01:13:02.814Z,69.07
2019-03-01T01:15:31.490Z,64.65
2019-03-01T01:18:00.584Z,59.38
2019-03-01T01:20:29.269Z,57.50
2019-03-01T01:22:57.982Z,69.30
2019-03-01T01:25:26.665Z,60.98
2019-03-01T01:27:55.622Z,58.10
2019-03-01T01:30:24.320Z,59.23
2019-03-01T01:32:53.027Z,59.60
2019-03-01T01:35:21.697Z,63.42
2019-03-01T01:37:50.388Z,60.50
2019-03-01T01:40:19.084Z,64.97
2019-03-01T01:42:47.771Z,64.03
2019-03-01T01:45:16.792Z,56.90
2019-03-01T01:47:45.706Z,56.60
2019-03-01T01:50:14.784Z,58.42
2019-03-01T01:52:43.477Z,59.40
2019-03-01T01:55:12.466Z,63.73
2019-03-01T01:57:41.189Z,57.03
2019-03-01T02:00:11.157Z,62.67
2019-03-01T02:02:40.007Z,58.90
2019-03-01T02:05:09.492Z,55.30
2019-03-01T02:07:38.349Z,52.93
2019-03-01T02:10:08.009Z,56.58
2019-03-01T02:12:36.782Z,59.55
2019-03-01T02:15:06.527Z,54.30
2019-03-01T02:17:35.211Z,52.53
2019-03-01T02:20:04.506Z,56.02
2019-03-01T02:22:33.489Z,57.65
2019-03-01T02:25:02.168Z,55.63
2019-03-01T02:27:31.088Z,53.78
2019-03-01T02:30:00.865Z,56.85
2019-03-01T02:32:33.749Z,58.13
2019-03-01T02:35:02.685Z,54.95
2019-03-01T02:37:31.640Z,66.95
2019-03-01T02:40:00.664Z,57.80
2019-03-01T02:42:29.371Z,62.03
2019-03-01T02:45:00.768Z,64.47
2019-03-01T02:47:29.537Z,68.97
2019-03-01T02:49:58.473Z,62.75
2019-03-01T02:52:28.682Z,64.72
2019-03-01T02:54:57.320Z,65.52
2019-03-01T02:57:26.016Z,67.67
2019-03-01T02:59:57.424Z,67.55
2019-03-01T03:02:26.170Z,63.08
2019-03-01T03:04:55.100Z,65.47
2019-03-01T03:07:38.296Z,64.32
2019-03-01T03:10:07.476Z,66.67
2019-03-01T03:12:36.391Z,71.45
2019-03-01T03:15:06.004Z,73.28
2019-03-01T03:17:35.223Z,68.80
2019-03-01T03:20:04.185Z,73.60
2019-03-01T03:22:32.867Z,70.12
2019-03-01T03:25:01.563Z,73.92
2019-03-01T03:27:30.249Z,69.87
2019-03-01T03:29:59.200Z,70.85
2019-03-01T03:32:27.914Z,71.72
2019-03-01T03:34:56.958Z,80.60
2019-03-01T03:37:25.634Z,77.20
2019-03-01T03:39:54.611Z,74.53
2019-03-01T03:42:23.796Z,75.72
2019-03-01T03:44:52.738Z,74.92
2019-03-01T03:47:21.407Z,71.02
2019-03-01T03:49:50.474Z,71.47
2019-03-01T03:52:19.169Z,74.67
2019-03-01T03:54:47.867Z,71.65
2019-03-01T03:57:16.795Z,72.75
2019-03-01T03:59:45.564Z,72.03
2019-03-01T04:02:14.317Z,65.95
2019-03-01T04:04:43.016Z,71.02
2019-03-01T04:07:12.171Z,70.55
2019-03-01T04:09:40.875Z,69.10
2019-03-01T04:12:09.561Z,75.37
2019-03-01T04:14:38.250Z,79.45
2019-03-01T04:17:06.914Z,78.42
2019-03-01T04:19:35.706Z,77.45
2019-03-01T04:22:04.416Z,77.12
2019-03-01T04:24:33.327Z,74.03
2019-03-01T04:27:02.502Z,77.27
2019-03-01T04:29:31.432Z,75.83
2019-03-01T04:32:00.374Z,78.40
2019-03-01T04:34:29.086Z,73.02
2019-03-01T04:36:57.865Z,77.65
2019-03-01T04:39:26.569Z,76.53
2019-03-01T04:41:55.591Z,80.83
2019-03-01T04:44:24.260Z,81.47
2019-03-01T04:46:53.021Z,78.50
2019-03-01T04:49:22.361Z,79.58
2019-03-01T04:51:51.054Z,75.62
2019-03-01T04:54:20.171Z,83.05
2019-03-01T04:56:49.357Z,86.97
2019-03-01T04:59:18.320Z,83.12
2019-03-01T05:01:47.021Z,78.07
2019-03-01T05:04:15.706Z,74.58
2019-03-01T05:06:45.004Z,74.90
2019-03-01T05:09:13.691Z,82.67
2019-03-01T05:11:42.383Z,71.92
2019-03-01T05:14:11.069Z,74.72
2019-03-01T05:16:39.752Z,72.42
2019-03-01T05:19:08.450Z,81.25
2019-03-01T05:21:37.136Z,76.60
2019-03-01T05:24:05.968Z,76.97
2019-03-01T05:26:34.953Z,73.92
2019-03-01T05:29:03.708Z,82.80
2019-03-01T05:31:32.700Z,71.47
2019-03-01T05:34:01.676Z,74.90
2019-03-01T05:36:30.382Z,70.95
2019-03-01T05:38:59.049Z,70.08
2019-03-01T05:41:27.815Z,69.15
2019-03-01T05:43:56.799Z,78.75
2019-03-01T05:46:25.496Z,66.67
2019-03-01T05:48:54.206Z,75.20
2019-03-01T05:51:23.243Z,79.10
2019-03-01T05:53:52.286Z,74.92
2019-03-01T05:56:21.598Z,75.75
2019-03-01T05:59:07.154Z,70.05
2019-03-01T06:01:47.304Z,70.15
2019-03-01T06:04:22.718Z,72.90
2019-03-01T06:07:28.324Z,75.03
2019-03-01T06:10:30.226Z,75.83
2019-03-01T06:13:22.095Z,78.02
2019-03-01T06:16:01.085Z,74.05
2019-03-01T06:18:54.914Z,77.00
2019-03-01T06:21:42.505Z,75.60
2019-03-01T06:24:48.399Z,81.78
2019-03-01T06:28:04.682Z,76.62
2019-03-01T06:30:56.495Z,81.53
2019-03-01T06:34:13.422Z,80.90
2019-03-01T06:37:20.198Z,84.15
2019-03-01T06:40:47.067Z,86.30
2019-03-01T06:43:55.328Z,82.30
2019-03-01T06:47:03.764Z,89.30
2019-03-01T06:49:49.983Z,88.58
2019-03-01T06:52:20.937Z,89.00
2019-03-01T06:54:49.648Z,89.17
2019-03-01T06:57:18.625Z,86.75
2019-03-01T06:59:47.617Z,86.87
2019-03-01T07:02:21.291Z,84.90
2019-03-01T07:04:50.297Z,83.30
2019-03-01T07:07:19.057Z,79.77
2019-03-01T07:09:47.731Z,82.72
2019-03-01T07:12:16.470Z,84.58
2019-03-01T07:14:45.389Z,76.30
2019-03-01T07:17:14.079Z,78.35
2019-03-01T07:19:42.954Z,79.60
2019-03-01T07:22:11.663Z,73.15
2019-03-01T07:24:40.341Z,84.85
2019-03-01T07:27:09.377Z,89.40
2019-03-01T07:29:38.348Z,82.95
2019-03-01T07:32:07.056Z,77.22
2019-03-01T07:34:35.791Z,86.60
2019-03-01T07:37:04.466Z,78.37
2019-03-01T07:39:33.416Z,79.35
2019-03-01T07:42:02.116Z,73.97
2019-03-01T07:44:30.816Z,78.28
2019-03-01T07:46:59.518Z,76.40
2019-03-01T07:49:28.503Z,76.37
2019-03-01T07:51:57.202Z,76.37
2019-03-01T07:54:25.894Z,80.28
2019-03-01T07:56:54.633Z,78.78
2019-03-01T07:59:24.005Z,77.03
2019-03-01T08:01:55.984Z,78.37
2019-03-01T08:04:28.822Z,77.05
2019-03-01T08:06:55.258Z,76.10
2019-03-01T08:09:23.986Z,78.02
2019-03-01T08:11:52.895Z,79.03
2019-03-01T08:14:24.657Z,83.05
2019-03-01T08:16:52.592Z,75.65
2019-03-01T08:19:23.609Z,77.70
2019-03-01T08:21:52.797Z,89.07
2019-03-01T08:24:21.534Z,79.20
2019-03-01T08:26:50.317Z,83.27
2019-03-01T08:29:19.006Z,86.12
2019-03-01T08:31:47.699Z,82.88
2019-03-01T08:34:17.712Z,83.07
2019-03-01T08:36:47.542Z,81.40
2019-03-01T08:39:16.565Z,78.12
2019-03-01T08:41:45.246Z,86.63
2019-03-01T08:44:13.987Z,87.80
2019-03-01T08:46:45.628Z,86.37
2019-03-01T08:49:13.864Z,83.65
2019-03-01T08:51:42.554Z,86.87
2019-03-01T08:54:11.304Z,82.88
2019-03-01T08:56:40.255Z,81.20
2019-03-01T08:59:08.973Z,88.20
2019-03-01T09:01:37.934Z,82.80
2019-03-01T09:04:09.572Z,96.22
2019-03-01T09:06:38.278Z,86.17
2019-03-01T09:09:08.800Z,82.95
2019-03-01T09:11:37.552Z,95.12
2019-03-01T09:14:06.574Z,90.60
2019-03-01T09:16:35.629Z,74.27
2019-03-01T09:19:04.395Z,77.30
2019-03-01T09:21:33.405Z,78.42
2019-03-01T09:24:02.436Z,80.40
2019-03-01T09:26:31.144Z,73.00
2019-03-01T09:29:00.179Z,61.58
2019-03-01T09:31:28.898Z,66.67
2019-03-01T09:33:57.616Z,69.80
2019-03-01T09:36:35.894Z,66.22
2019-03-01T09:39:08.372Z,75.57
2019-03-01T09:41:40.420Z,79.55
2019-03-01T09:44:08.024Z,79.60
2019-03-01T09:46:36.734Z,71.57
2019-03-01T09:49:05.764Z,74.27
2019-03-01T09:51:34.569Z,75.62
2019-03-01T09:54:06.553Z,69.22
2019-03-01T09:56:34.606Z,72.47
2019-03-01T09:59:03.686Z,74.20
2019-03-01T10:01:32.581Z,71.42
2019-03-01T10:04:01.442Z,76.57
2019-03-01T10:06:37.800Z,74.40
2019-03-01T10:09:00.600Z,80.80
2019-03-01T10:11:29.647Z,79.62
2019-03-01T10:13:58.575Z,85.05
2019-03-01T10:16:27.640Z,78.65
2019-03-01T10:18:56.320Z,73.07
2019-03-01T10:21:26.169Z,73.57
2019-03-01T10:23:54.940Z,71.40
2019-03-01T10:26:23.662Z,63.95
2019-03-01T10:28:52.341Z,64.40
2019-03-01T10:31:21.389Z,67.03
2019-03-01T10:33:50.477Z,55.55
2019-03-01T10:36:19.275Z,64.00
2019-03-01T10:38:47.967Z,54.95
2019-03-01T10:41:16.791Z,51.85
2019-03-01T10:43:45.584Z,57.93
2019-03-01T10:46:14.628Z,62.95
2019-03-01T10:48:43.311Z,78.40
2019-03-01T10:51:12.074Z,67.05
2019-03-01T10:53:40.785Z,76.45
2019-03-01T10:56:09.874Z,79.50
2019-03-01T10:58:38.830Z,70.08
2019-03-01T11:01:07.808Z,87.53
2019-03-01T11:03:36.493Z,98.07
2019-03-01T11:06:05.254Z,110.65
2019-03-01T11:08:33.961Z,124.80
2019-03-01T11:11:02.723Z,222.95
2019-03-01T11:13:31.558Z,255.30
2019-03-01T11:16:00.483Z,413.50
2019-03-01T11:18:29.476Z,483.90
2019-03-01T11:20:58.741Z,342.60
2019-03-01T11:23:27.727Z,272.58
2019-03-01T11:25:56.512Z,347.40
2019-03-01T11:28:25.275Z,346.93
2019-03-01T11:30:54.244Z,257.50
2019-03-01T11:33:23.359Z,226.02
2019-03-01T11:35:52.066Z,202.30
2019-03-01T11:38:20.752Z,181.57
2019-03-01T11:40:51.852Z,175.75
2019-03-01T11:43:20.623Z,172.72
2019-03-01T11:45:49.521Z,148.68
2019-03-01T11:48:18.525Z,131.45
2019-03-01T11:50:47.378Z,146.02
2019-03-01T11:53:16.709Z,140.65
2019-03-01T11:55:45.381Z,124.22
2019-03-01T11:58:14.695Z,121.62
2019-03-01T12:00:52.060Z,119.70
2019-03-01T12:03:15.422Z,132.55
2019-03-01T12:05:44.644Z,135.35
2019-03-01T12:08:13.444Z,112.40
2019-03-01T12:10:42.426Z,131.57
2019-03-01T12:13:11.129Z,133.85
2019-03-01T12:15:39.882Z,128.90
2019-03-01T12:18:08.594Z,125.95
2019-03-01T12:20:37.354Z,124.92
2019-03-01T12:23:06.201Z,117.00
2019-03-01T12:25:34.913Z,126.00
2019-03-01T12:28:03.644Z,111.32
2019-03-01T12:30:32.473Z,136.80
2019-03-01T12:33:01.825Z,122.53
2019-03-01T12:35:31.045Z,130.95
2019-03-01T12:37:59.768Z,137.00
2019-03-01T12:40:28.554Z,140.75
2019-03-01T12:42:57.419Z,122.13
2019-03-01T12:45:26.138Z,118.30
2019-03-01T12:47:55.169Z,101.33
2019-03-01T12:50:24.023Z,107.58
2019-03-01T12:52:53.410Z,107.92
2019-03-01T12:55:22.585Z,113.10
2019-03-01T12:57:51.321Z,110.92
2019-03-01T13:00:25.411Z,113.28
2019-03-01T13:02:54.363Z,107.75
2019-03-01T13:05:25.549Z,122.05
2019-03-01T13:07:54.548Z,121.42
2019-03-01T13:10:25.482Z,120.82
2019-03-01T13:12:54.695Z,104.20
2019-03-01T13:15:23.817Z,92.12
2019-03-01T13:17:52.589Z,86.55
2019-03-01T13:20:21.270Z,68.52
2019-03-01T13:22:50.011Z,68.85
2019-03-01T13:25:19.097Z,71.53
2019-03-01T13:27:48.820Z,61.73
2019-03-01T13:30:20.108Z,74.32
2019-03-01T13:32:48.811Z,58.52
2019-03-01T13:35:17.706Z,63.85
2019-03-01T13:37:46.545Z,67.37
2019-03-01T13:40:16.467Z,65.17
2019-03-01T13:42:47.177Z,63.20
2019-03-01T13:45:17.586Z,69.55
2019-03-01T13:47:47.030Z,67.85
2019-03-01T13:50:16.968Z,75.08
2019-03-01T13:52:45.809Z,70.97
2019-03-01T13:55:15.037Z,69.37
2019-03-01T13:57:46.066Z,66.25
2019-03-01T14:00:16.721Z,69.00
2019-03-01T14:02:47.079Z,62.25
2019-03-01T14:05:17.337Z,64.20
2019-03-01T14:07:55.396Z,79.40
2019-03-01T14:10:20.483Z,83.78
2019-03-01T14:12:49.412Z,83.10
2019-03-01T14:15:18.593Z,91.08
2019-03-01T14:17:47.558Z,82.20
2019-03-01T14:20:20.425Z,89.70
2019-03-01T14:22:49.250Z,98.78
2019-03-01T14:25:18.640Z,111.40
2019-03-01T14:27:47.954Z,93.75
2019-03-01T14:30:18.772Z,66.50
2019-03-01T14:32:47.558Z,87.45
2019-03-01T14:35:16.434Z,81.12
2019-03-01T14:37:45.650Z,69.27
2019-03-01T14:40:15.771Z,86.37
2019-03-01T14:42:47.467Z,76.33
2019-03-01T14:45:17.955Z,73.10
2019-03-01T14:47:46.758Z,74.85
2019-03-01T14:50:17.026Z,84.20
2019-03-01T14:52:46.049Z,77.22
2019-03-01T14:55:19.735Z,85.75
2019-03-01T14:58:01.032Z,72.72
2019-03-01T15:00:37.371Z,78.65
2019-03-01T15:03:38.177Z,68.55
2019-03-01T15:06:08.408Z,66.22
2019-03-01T15:08:44.164Z,66.17
2019-03-01T15:11:17.244Z,68.45
2019-03-01T15:13:47.263Z,64.17
2019-03-01T15:16:16.056Z,72.15
2019-03-01T15:18:44.828Z,68.10
2019-03-01T15:21:13.885Z,67.22
2019-03-01T15:23:42.827Z,78.80
2019-03-01T15:26:11.529Z,78.10
2019-03-01T15:28:58.994Z,69.30
2019-03-01T15:31:27.825Z,65.67
2019-03-01T15:33:56.539Z,64.80
2019-03-01T15:36:25.678Z,70.65
2019-03-01T15:38:54.392Z,66.10
2019-03-01T15:41:39.203Z,59.45
2019-03-01T15:44:07.120Z,68.22
2019-03-01T15:46:35.816Z,53.40
2019-03-01T15:49:05.199Z,50.98
2019-03-01T15:51:38.094Z,48.63
2019-03-01T15:54:05.648Z,46.58
2019-03-01T15:56:34.699Z,48.73
2019-03-01T15:59:06.074Z,46.85
2019-03-01T16:01:34.236Z,38.50
2019-03-01T16:04:03.255Z,41.40
2019-03-01T16:06:32.532Z,35.43
2019-03-01T16:09:01.802Z,38.78
2019-03-01T16:11:31.083Z,36.55
2019-03-01T16:14:00.136Z,36.93
2019-03-01T16:16:28.815Z,42.98
2019-03-01T16:19:00.018Z,41.80
2019-03-01T16:21:28.713Z,40.77
2019-03-01T16:23:57.738Z,40.05
2019-03-01T16:26:29.808Z,39.48
2019-03-01T16:28:56.833Z,40.23
2019-03-01T16:31:25.536Z,46.95
2019-03-01T16:33:54.523Z,51.83
2019-03-01T16:36:30.591Z,43.02
2019-03-01T16:38:59.620Z,41.30
2019-03-01T16:41:28.294Z,38.02
2019-03-01T16:43:56.974Z,42.62
2019-03-01T16:46:28.494Z,37.85
2019-03-01T16:48:56.730Z,38.83
2019-03-01T16:51:25.402Z,39.38
2019-03-01T16:53:54.083Z,35.73
2019-03-01T16:56:24.234Z,42.43
2019-03-01T16:58:53.245Z,40.75
2019-03-01T17:01:21.937Z,40.20
2019-03-01T17:03:52.792Z,39.60
2019-03-01T17:06:21.928Z,48.80
2019-03-01T17:08:50.873Z,44.93
2019-03-01T17:11:19.815Z,47.27
2019-03-01T17:13:48.492Z,47.45
2019-03-01T17:16:20.513Z,44.53
2019-03-01T17:18:48.615Z,61.53
2019-03-01T17:21:17.375Z,63.08
2019-03-01T17:23:46.057Z,52.00
2019-03-01T17:26:15.278Z,50.08
2019-03-01T17:28:43.968Z,48.70
2019-03-01T17:31:12.938Z,45.90
2019-03-01T17:33:45.050Z,42.00
2019-03-01T17:36:12.977Z,46.13
2019-03-01T17:38:45.972Z,39.80
2019-03-01T17:41:13.261Z,40.58
2019-03-01T17:43:42.198Z,34.48
2019-03-01T17:46:11.229Z,30.82
2019-03-01T17:48:40.162Z,41.10
2019-03-01T17:51:08.861Z,33.23
2019-03-01T17:53:39.595Z,28.92
2019-03-01T17:56:08.187Z,27.35
2019-03-01T17:58:36.866Z,24.63
2019-03-01T18:01:05.859Z,32.48
2019-03-01T18:03:34.597Z,25.80
2019-03-01T18:06:03.263Z,24.25
2019-03-01T18:08:32.165Z,17.70
2019-03-01T18:11:01.174Z,21.10
2019-03-01T18:13:30.248Z,24.27
2019-03-01T18:15:58.914Z,22.32
2019-03-01T18:18:27.856Z,17.52
2019-03-01T18:20:56.546Z,24.37
2019-03-01T18:23:25.243Z,20.60
2019-03-01T18:25:53.923Z,25.23
2019-03-01T18:28:24.901Z,33.60
2019-03-01T18:30:56.198Z,24.02
2019-03-01T18:33:23.688Z,25.68
2019-03-01T18:35:55.447Z,21.50
2019-03-01T18:38:23.031Z,23.90
2019-03-01T18:40:52.521Z,19.00
2019-03-01T18:43:21.776Z,17.92
2019-03-01T18:45:50.456Z,26.00
2019-03-01T18:48:19.223Z,26.40
2019-03-01T18:50:47.884Z,36.55
2019-03-01T18:53:16.573Z,23.27
2019-03-01T18:55:45.241Z,34.00
2019-03-01T18:58:14.972Z,30.75
2019-03-01T19:00:44.192Z,26.37
2019-03-01T19:03:13.468Z,25.08
2019-03-01T19:05:42.401Z,23.05
2019-03-01T19:08:11.357Z,20.45
2019-03-01T19:10:40.285Z,27.00
2019-03-01T19:13:09.289Z,23.80
2019-03-01T19:15:38.357Z,25.65
2019-03-01T19:18:07.058Z,28.62
2019-03-01T19:20:38.031Z,27.25
2019-03-01T19:23:08.128Z,27.52
2019-03-01T19:25:36.996Z,30.72
2019-03-01T19:28:05.750Z,34.20
2019-03-01T19:30:34.725Z,25.70
2019-03-01T19:33:06.118Z,28.52
2019-03-01T19:35:34.865Z,26.05
2019-03-01T19:38:04.061Z,24.72
2019-03-01T19:40:32.746Z,22.50
2019-03-01T19:43:01.445Z,28.45
2019-03-01T19:45:30.505Z,22.50
2019-03-01T19:48:03.231Z,26.00
2019-03-01T19:50:30.971Z,24.10
2019-03-01T19:52:59.672Z,27.85
2019-03-01T19:55:28.412Z,23.57
2019-03-01T19:57:57.105Z,25.82
2019-03-01T20:00:26.120Z,22.90
2019-03-01T20:02:54.820Z,24.02
2019-03-01T20:05:27.959Z,19.52
2019-03-01T20:07:55.615Z,24.87
2019-03-01T20:10:25.098Z,28.47
2019-03-01T20:12:54.323Z,29.02
2019-03-01T20:15:23.590Z,27.42
2019-03-01T20:17:52.432Z,31.15
2019-03-01T20:20:21.857Z,27.60
2019-03-01T20:22:54.273Z,29.37
2019-03-01T20:25:21.664Z,25.08
2019-03-01T20:27:50.353Z,31.23
2019-03-01T20:30:21.131Z,34.18
2019-03-01T20:32:51.220Z,35.90
2019-03-01T20:35:21.067Z,33.02
2019-03-01T20:37:50.079Z,36.17
2019-03-01T20:40:18.830Z,27.70
2019-03-01T20:42:50.020Z,29.27
2019-03-01T20:45:25.912Z,31.47
2019-03-01T20:47:54.557Z,33.53
2019-03-01T20:50:23.299Z,35.23
2019-03-01T20:52:52.237Z,29.12
2019-03-01T20:55:21.063Z,30.25
2019-03-01T20:57:49.821Z,25.30
2019-03-01T21:00:18.623Z,27.50
2019-03-01T21:02:50.230Z,32.67
2019-03-01T21:05:17.885Z,22.98
2019-03-01T21:07:47.785Z,28.12
2019-03-01T21:10:19.318Z,26.77
2019-03-01T21:12:48.006Z,30.88
2019-03-01T21:15:17.091Z,34.13
2019-03-01T21:17:46.078Z,29.07
2019-03-01T21:20:15.916Z,32.65
2019-03-01T21:22:45.781Z,26.12
2019-03-01T21:25:15.291Z,24.52
2019-03-01T21:27:44.257Z,25.57
2019-03-01T21:30:15.833Z,25.82
2019-03-01T21:32:47.045Z,27.30
2019-03-01T21:35:16.783Z,27.00
2019-03-01T21:37:45.768Z,21.73
2019-03-01T21:40:14.575Z,20.30
2019-03-01T21:42:43.905Z,20.23
2019-03-01T21:45:17.923Z,20.08
2019-03-01T21:47:48.050Z,22.17
2019-03-01T21:50:15.527Z,20.12
2019-03-01T21:52:44.289Z,23.22
2019-03-01T21:55:13.604Z,20.55
2019-03-01T21:57:42.555Z,23.15
2019-03-01T22:00:17.069Z,18.98
2019-03-01T22:02:48.932Z,17.17
2019-03-01T22:05:16.270Z,19.10
2019-03-01T22:07:45.201Z,18.65
2019-03-01T22:10:14.257Z,17.02
2019-03-01T22:12:43.273Z,15.85
2019-03-01T22:15:14.942Z,17.32
2019-03-01T22:17:45.394Z,14.63
2019-03-01T22:20:14.205Z,12.40
2019-03-01T22:22:43.147Z,11.20
2019-03-01T22:25:12.068Z,16.52
2019-03-01T22:27:40.824Z,17.87
2019-03-01T22:30:11.997Z,19.37
2019-03-01T22:32:42.340Z,13.47
2019-03-01T22:35:11.451Z,16.70
2019-03-01T22:37:40.420Z,15.13
2019-03-01T22:40:10.049Z,17.32
2019-03-01T22:42:38.798Z,24.23
2019-03-01T22:45:10.348Z,20.77
2019-03-01T22:47:40.472Z,46.70
2019-03-01T22:50:10.742Z,18.17
2019-03-01T22:52:39.719Z,15.35
2019-03-01T22:55:09.504Z,25.97
2019-03-01T22:57:38.204Z,26.37
2019-03-01T23:00:19.489Z,33.58
2019-03-01T23:02:47.692Z,21.12
2019-03-01T23:05:17.717Z,11.18
2019-03-01T23:07:46.677Z,13.03
2019-03-01T23:10:18.423Z,15.32
2019-03-01T23:12:48.534Z,13.60
2019-03-01T23:15:17.224Z,20.00
2019-03-01T23:17:46.162Z,38.02
2019-03-01T23:20:14.902Z,18.37
2019-03-01T23:22:46.051Z,24.57
2019-03-01T23:25:14.291Z,32.30
2019-03-01T23:27:43.237Z,21.75
2019-03-01T23:30:12.259Z,20.75
2019-03-01T23:32:40.959Z,12.75
2019-03-01T23:35:09.732Z,14.30
2019-03-01T23:37:38.807Z,18.05
2019-03-01T23:40:08.576Z,30.45
2019-03-01T23:42:37.299Z,17.70
2019-03-01T23:45:06.673Z,16.67
2019-03-01T23:47:38.274Z,18.55
2019-03-01T23:50:06.350Z,20.97
2019-03-01T23:52:35.298Z,14.45
2019-03-01T23:55:04.093Z,18.25
2019-03-01T23:57:32.873Z,18.30
